Alisal, California
Current Conditions -  °F | °C
As of 5:53 AM on Monday 26 Jan 2015 (Local Time) from KSNS Reporting Station
Clear Clear  
Wind Chill: 12°   Ceiling: Unl
Heat Index: 12°   Visibility: 10mi
Dew Point:   Wind: 5mph
Humidity: 49%   Direction: 120°ESE
Pressure: 29.99"   Gusts: NA
Location:  36.6786°N, 121.613°W
Report Text: KSNS 261353Z AUTO 12004KT 10SM CLR 12/02 A2999 RMK AO2 SLP166 T01220017
Loading
Personal Weather Stations






























Interactive Weather Map New forecast layout! Learn more

10-Day Weather Forecast

Advertisements
Track Severe Weather on mobile